createdAt,value
2023-03-11T00:00:02.882Z,0.12
2023-03-11T00:02:29.370Z,0.12
2023-03-11T00:04:55.871Z,0.13
2023-03-11T00:07:22.273Z,0.16
2023-03-11T00:09:48.667Z,0.16
2023-03-11T00:12:15.044Z,0.16
2023-03-11T00:14:41.423Z,0.10
2023-03-11T00:17:07.758Z,0.20
2023-03-11T00:19:34.214Z,0.16
2023-03-11T00:22:00.545Z,0.20
2023-03-11T00:24:26.861Z,0.16
2023-03-11T00:26:53.245Z,0.21
2023-03-11T00:29:22.646Z,0.23
2023-03-11T00:31:51.512Z,0.20
2023-03-11T00:34:17.850Z,0.21
2023-03-11T00:36:44.231Z,0.15
2023-03-11T00:39:10.709Z,0.19
2023-03-11T00:41:37.106Z,0.22
2023-03-11T00:44:03.462Z,0.29
2023-03-11T00:46:30.998Z,0.21
2023-03-11T00:48:59.451Z,0.21
2023-03-11T00:51:25.970Z,0.23
2023-03-11T00:53:53.961Z,0.24
2023-03-11T00:56:21.655Z,0.20
2023-03-11T00:58:50.864Z,0.21
2023-03-11T01:01:17.363Z,0.28
2023-03-11T01:03:43.851Z,0.22
2023-03-11T01:06:10.233Z,0.24
2023-03-11T01:08:39.232Z,0.20
2023-03-11T01:11:05.665Z,0.22
2023-03-11T01:13:32.223Z,0.19
2023-03-11T01:16:00.111Z,0.21
2023-03-11T01:18:28.787Z,0.26
2023-03-11T01:20:55.337Z,0.20
2023-03-11T01:23:22.066Z,0.17
2023-03-11T01:25:50.996Z,0.23
2023-03-11T01:28:24.857Z,0.19
2023-03-11T01:30:53.621Z,0.22
2023-03-11T01:33:22.539Z,0.19
2023-03-11T01:35:48.879Z,0.21
2023-03-11T01:38:15.236Z,0.21
2023-03-11T01:40:41.594Z,0.20
2023-03-11T01:43:07.954Z,0.19
2023-03-11T01:45:34.348Z,0.26
2023-03-11T01:48:00.714Z,0.32
2023-03-11T01:50:27.880Z,0.19
2023-03-11T01:52:54.402Z,0.21
2023-03-11T01:55:20.739Z,0.19
2023-03-11T01:57:47.074Z,0.26
2023-03-11T02:00:13.682Z,0.22
2023-03-11T02:02:40.253Z,0.24
2023-03-11T02:05:06.622Z,0.18
2023-03-11T02:07:32.998Z,0.19
2023-03-11T02:09:59.336Z,0.19
2023-03-11T02:12:25.857Z,0.21
2023-03-11T02:14:52.286Z,0.19
2023-03-11T02:17:18.740Z,0.21
2023-03-11T02:19:45.233Z,0.12
2023-03-11T02:22:11.567Z,0.11
2023-03-11T02:24:37.947Z,0.14
2023-03-11T02:27:04.416Z,0.15
2023-03-11T02:29:30.766Z,0.17
2023-03-11T02:31:57.146Z,0.14
2023-03-11T02:34:23.515Z,0.16
2023-03-11T02:36:49.864Z,0.19
2023-03-11T02:39:16.202Z,0.23
2023-03-11T02:41:42.571Z,0.17
2023-03-11T02:44:08.940Z,0.19
2023-03-11T02:46:35.348Z,0.17
2023-03-11T02:49:01.697Z,0.18
2023-03-11T02:51:28.030Z,0.19
2023-03-11T02:53:54.401Z,0.24
2023-03-11T02:56:20.783Z,0.28
2023-03-11T02:58:47.221Z,0.25
2023-03-11T03:01:13.619Z,0.18
2023-03-11T03:03:40.226Z,0.20
2023-03-11T03:06:06.840Z,0.21
2023-03-11T03:08:33.179Z,0.30
2023-03-11T03:10:59.512Z,0.21
2023-03-11T03:13:26.053Z,0.29
2023-03-11T03:15:52.394Z,0.21
2023-03-11T03:18:21.052Z,0.13
2023-03-11T03:20:47.421Z,0.19
2023-03-11T03:23:13.947Z,0.22
2023-03-11T03:25:40.306Z,0.23
2023-03-11T03:28:06.659Z,0.25
2023-03-11T03:30:33.285Z,0.16
2023-03-11T03:33:00.702Z,0.28
2023-03-11T03:35:29.806Z,0.25
2023-03-11T03:38:01.166Z,0.25
2023-03-11T03:40:27.615Z,0.27
2023-03-11T03:42:57.426Z,0.28
2023-03-11T03:45:23.855Z,0.27
2023-03-11T03:47:50.222Z,0.26
2023-03-11T03:50:16.851Z,0.35
2023-03-11T03:52:43.701Z,0.39
2023-03-11T03:55:12.647Z,0.45
2023-03-11T03:57:40.512Z,0.46
2023-03-11T04:00:07.010Z,0.33
2023-03-11T04:02:33.525Z,0.39
2023-03-11T04:05:03.024Z,0.42
2023-03-11T04:07:29.377Z,0.29
2023-03-11T04:09:56.924Z,0.37
2023-03-11T04:12:26.676Z,0.44
2023-03-11T04:14:53.098Z,0.44
2023-03-11T04:17:22.368Z,0.37
2023-03-11T04:19:50.038Z,0.43
2023-03-11T04:22:16.737Z,0.56
2023-03-11T04:24:43.124Z,0.53
2023-03-11T04:27:09.708Z,0.52
2023-03-11T04:29:38.363Z,0.47
2023-03-11T04:32:06.815Z,0.45
2023-03-11T04:34:33.179Z,0.45
2023-03-11T04:37:04.918Z,0.39
2023-03-11T04:39:31.425Z,0.30
2023-03-11T04:41:58.892Z,0.31
2023-03-11T04:44:30.457Z,0.36
2023-03-11T04:46:56.795Z,0.38
2023-03-11T04:49:23.876Z,0.41
2023-03-11T04:51:50.254Z,0.47
2023-03-11T04:54:16.794Z,0.48
2023-03-11T04:56:44.672Z,0.40
2023-03-11T04:59:11.366Z,0.40
2023-03-11T05:01:37.875Z,0.35
2023-03-11T05:04:04.283Z,0.38
2023-03-11T05:06:30.728Z,0.43
2023-03-11T05:08:57.130Z,0.46
2023-03-11T05:11:27.602Z,0.64
2023-03-11T05:13:54.068Z,0.65
2023-03-11T05:16:21.876Z,0.53
2023-03-11T05:18:48.548Z,0.57
2023-03-11T05:21:16.081Z,0.51
2023-03-11T05:23:42.881Z,0.52
2023-03-11T05:26:09.854Z,0.60
2023-03-11T05:28:36.542Z,0.97
2023-03-11T05:31:05.296Z,2.22
2023-03-11T05:33:39.279Z,2.51
2023-03-11T05:36:05.701Z,1.47
2023-03-11T05:38:32.111Z,0.79
2023-03-11T05:40:58.727Z,0.69
2023-03-11T05:43:26.281Z,0.72
2023-03-11T05:46:02.010Z,0.78
2023-03-11T05:48:28.894Z,0.67
2023-03-11T06:30:13.930Z,1.06
2023-03-11T07:11:56.277Z,1.69
2023-03-11T07:14:23.437Z,1.64
2023-03-11T07:42:24.600Z,1.14
2023-03-11T07:47:31.823Z,1.05
2023-03-11T07:50:05.433Z,1.07
2023-03-11T07:52:32.098Z,1.09
2023-03-11T07:54:59.531Z,1.07
2023-03-11T07:57:28.270Z,1.08
2023-03-11T08:00:03.267Z,1.18
2023-03-11T08:02:35.230Z,0.98
2023-03-11T08:05:02.725Z,1.04
2023-03-11T08:07:29.893Z,1.24
2023-03-11T08:09:58.365Z,1.13
2023-03-11T08:12:25.113Z,1.04
2023-03-11T08:14:51.568Z,1.00
2023-03-11T08:17:18.172Z,0.96
2023-03-11T08:19:44.786Z,0.88
2023-03-11T08:22:11.188Z,0.86
2023-03-11T08:24:37.552Z,0.90
2023-03-11T08:27:03.945Z,0.91
2023-03-11T08:29:32.827Z,0.82
2023-03-11T08:31:59.969Z,1.12
2023-03-11T08:34:26.353Z,1.15
2023-03-11T08:36:52.759Z,1.28
2023-03-11T08:39:19.102Z,1.11
2023-03-11T08:41:45.477Z,1.25
2023-03-11T08:44:12.402Z,1.51
2023-03-11T08:46:38.828Z,1.38
2023-03-11T08:49:10.170Z,1.47
2023-03-11T08:51:39.442Z,1.28
2023-03-11T08:54:05.914Z,1.41
2023-03-11T08:56:32.741Z,1.51
2023-03-11T08:58:59.159Z,1.56
2023-03-11T09:01:26.019Z,1.62
2023-03-11T09:03:52.680Z,2.10
2023-03-11T09:06:21.417Z,2.30
2023-03-11T09:08:48.065Z,1.58
2023-03-11T09:11:14.548Z,1.39
2023-03-11T09:13:41.332Z,1.38
2023-03-11T09:16:07.789Z,1.05
2023-03-11T09:18:34.665Z,1.16
2023-03-11T09:21:01.376Z,1.36
2023-03-11T09:23:29.110Z,1.96
2023-03-11T09:25:55.881Z,2.37
2023-03-11T09:28:24.814Z,2.08
2023-03-11T09:30:51.248Z,1.42
2023-03-11T09:33:17.713Z,1.15
2023-03-11T09:35:44.200Z,1.04
2023-03-11T09:38:11.888Z,1.12
2023-03-11T09:40:38.695Z,1.05
2023-03-11T09:43:07.362Z,1.26
2023-03-11T09:45:33.824Z,0.98
2023-03-11T09:48:00.964Z,1.19
2023-03-11T09:50:27.727Z,5.81
2023-03-11T09:52:54.951Z,8.72
2023-03-11T09:55:21.775Z,26.01
2023-03-11T09:57:48.242Z,56.68
2023-03-11T10:00:14.822Z,83.19
2023-03-11T10:02:41.643Z,30.11
2023-03-11T10:05:09.013Z,1.35
2023-03-11T10:07:42.830Z,0.98
2023-03-11T10:10:10.490Z,0.94
2023-03-11T10:12:36.908Z,0.86
2023-03-11T10:15:03.822Z,0.96
2023-03-11T10:17:30.506Z,1.06
2023-03-11T10:19:56.890Z,0.89
2023-03-11T10:22:23.583Z,1.00
2023-03-11T10:24:50.048Z,1.04
2023-03-11T10:27:19.437Z,1.01
2023-03-11T10:29:45.993Z,0.88
2023-03-11T10:32:14.765Z,0.79
2023-03-11T10:34:41.146Z,0.86
2023-03-11T10:37:07.590Z,0.87
2023-03-11T10:39:34.276Z,1.11
2023-03-11T10:42:00.784Z,1.29
2023-03-11T10:44:27.511Z,1.27
2023-03-11T10:46:58.788Z,1.55
2023-03-11T10:49:27.615Z,1.45
2023-03-11T10:51:54.311Z,1.11
2023-03-11T10:54:20.794Z,1.32
2023-03-11T10:56:47.616Z,1.77
2023-03-11T10:59:16.587Z,1.51
2023-03-11T11:01:43.332Z,1.50
2023-03-11T11:04:09.969Z,1.43
2023-03-11T11:06:36.685Z,1.28
2023-03-11T11:09:03.142Z,1.30
2023-03-11T11:11:29.494Z,1.23
2023-03-11T11:13:56.612Z,1.38
2023-03-11T11:16:23.187Z,1.63
2023-03-11T11:18:49.727Z,1.92
2023-03-11T11:21:16.195Z,1.71
2023-03-11T11:23:42.989Z,1.65
2023-03-11T11:26:10.563Z,1.35
2023-03-11T11:28:37.155Z,1.48
2023-03-11T11:31:03.992Z,1.29
2023-03-11T11:33:30.363Z,1.55
2023-03-11T11:35:58.598Z,1.52
2023-03-11T11:38:25.165Z,1.63
2023-03-11T11:40:51.652Z,1.79
2023-03-11T11:43:18.039Z,1.67
2023-03-11T11:45:44.779Z,1.83
2023-03-11T11:48:12.655Z,1.80
2023-03-11T11:50:39.133Z,1.64
2023-03-11T11:53:05.788Z,1.87
2023-03-11T11:55:32.360Z,1.57
2023-03-11T11:57:58.820Z,1.68
2023-03-11T12:00:25.225Z,1.72
2023-03-11T12:02:52.235Z,1.74
2023-03-11T12:05:19.115Z,1.78
2023-03-11T12:07:45.914Z,2.06
2023-03-11T12:10:22.209Z,1.93
2023-03-11T12:12:52.389Z,2.11
2023-03-11T12:15:19.060Z,2.36
2023-03-11T12:17:47.863Z,2.37
2023-03-11T12:20:14.390Z,2.40
2023-03-11T12:22:41.845Z,2.33
2023-03-11T12:25:08.422Z,2.41
2023-03-11T12:27:35.337Z,2.40
2023-03-11T12:30:01.849Z,2.24
2023-03-11T12:32:28.442Z,2.20
2023-03-11T12:34:59.716Z,2.59
2023-03-11T12:37:28.452Z,2.28
2023-03-11T12:39:55.138Z,2.29
2023-03-11T12:42:21.542Z,2.36
2023-03-11T12:44:47.967Z,2.64
2023-03-11T12:47:14.648Z,2.71
2023-03-11T12:49:41.052Z,2.93
2023-03-11T12:52:07.516Z,2.75
2023-03-11T12:54:34.016Z,2.63
2023-03-11T12:57:00.416Z,2.73
2023-03-11T12:59:26.770Z,2.96
2023-03-11T13:01:53.257Z,3.06
2023-03-11T13:04:19.815Z,2.95
2023-03-11T13:06:47.360Z,2.86
2023-03-11T13:09:13.711Z,2.94
2023-03-11T13:11:40.677Z,2.93
2023-03-11T13:14:07.092Z,2.72
2023-03-11T13:16:33.622Z,3.07
2023-03-11T13:19:00.136Z,2.87
2023-03-11T13:21:29.563Z,2.47
2023-03-11T13:23:56.079Z,2.36
2023-03-11T13:26:22.926Z,2.01
2023-03-11T13:28:51.748Z,2.05
2023-03-11T13:31:18.198Z,2.15
2023-03-11T13:33:44.618Z,1.96
2023-03-11T13:36:11.883Z,2.00
2023-03-11T13:38:38.579Z,2.03
2023-03-11T13:41:05.039Z,2.29
2023-03-11T13:43:32.245Z,2.32
2023-03-11T13:45:58.785Z,2.14
2023-03-11T13:48:25.508Z,3.37
2023-03-11T13:50:52.250Z,2.49
2023-03-11T13:53:18.895Z,2.41
2023-03-11T13:55:45.693Z,2.49
2023-03-11T13:58:16.810Z,2.34
2023-03-11T14:00:43.446Z,2.49
2023-03-11T14:03:10.202Z,2.55
2023-03-11T14:05:36.896Z,2.61
2023-03-11T14:08:07.902Z,2.56
2023-03-11T14:10:34.863Z,2.99
2023-03-11T14:13:02.154Z,3.04
2023-03-11T14:15:28.719Z,2.92
2023-03-11T14:17:56.559Z,2.65
2023-03-11T14:20:23.685Z,2.73
2023-03-11T14:22:50.203Z,2.76
2023-03-11T14:25:16.948Z,2.75
2023-03-11T14:27:43.401Z,2.77
2023-03-11T14:30:10.334Z,2.77
2023-03-11T14:32:36.727Z,2.92
2023-03-11T14:35:03.185Z,3.15
2023-03-11T14:37:30.331Z,3.11
2023-03-11T14:39:56.721Z,3.19
2023-03-11T14:42:23.198Z,3.18
2023-03-11T14:44:49.547Z,3.15
2023-03-11T14:47:16.228Z,2.89
2023-03-11T14:49:42.730Z,2.55
2023-03-11T14:52:10.656Z,2.71
2023-03-11T14:54:39.625Z,3.06
2023-03-11T14:57:06.185Z,3.20
2023-03-11T14:59:32.761Z,3.02
2023-03-11T15:01:59.452Z,3.51
2023-03-11T15:04:25.938Z,3.55
2023-03-11T15:06:52.709Z,3.56
2023-03-11T15:09:19.109Z,3.40
2023-03-11T15:11:45.778Z,3.68
2023-03-11T15:14:12.256Z,3.83
2023-03-11T15:16:46.372Z,3.67
2023-03-11T15:22:15.686Z,3.69
2023-03-11T15:24:42.121Z,3.40
2023-03-11T15:27:08.632Z,3.53
2023-03-11T15:29:52.411Z,3.31
2023-03-11T15:32:18.863Z,3.25
2023-03-11T15:34:45.264Z,3.38
2023-03-11T15:37:11.665Z,3.66
2023-03-11T15:39:38.304Z,3.45
2023-03-11T15:42:04.760Z,8.03
2023-03-11T15:44:31.202Z,50.64
2023-03-11T15:46:57.849Z,23.60
2023-03-11T15:49:24.687Z,13.24
2023-03-11T15:51:56.332Z,15.17
2023-03-11T15:54:23.122Z,37.41
2023-03-11T15:56:49.568Z,15.43
2023-03-11T15:59:16.381Z,3.09
2023-03-11T16:01:42.731Z,3.19
2023-03-11T16:04:10.283Z,3.57
2023-03-11T16:06:36.707Z,3.56
2023-03-11T16:09:03.293Z,3.08
2023-03-11T16:11:30.519Z,2.70
2023-03-11T16:13:57.637Z,3.03
2023-03-11T16:16:24.474Z,2.94
2023-03-11T16:18:51.057Z,2.74
2023-03-11T16:21:17.441Z,2.68
2023-03-11T16:23:51.532Z,2.71
2023-03-11T16:26:18.717Z,2.65
2023-03-11T16:28:45.430Z,3.21
2023-03-11T16:31:11.862Z,2.84
2023-03-11T16:33:38.308Z,2.63
2023-03-11T16:36:05.002Z,3.54
2023-03-11T16:38:31.758Z,4.45
2023-03-11T16:40:58.159Z,4.20
2023-03-11T16:43:25.760Z,4.23
2023-03-11T16:45:52.170Z,3.48
2023-03-11T16:48:18.519Z,2.68
2023-03-11T16:50:44.960Z,3.07
2023-03-11T16:53:11.343Z,3.08
2023-03-11T16:55:37.702Z,3.34
2023-03-11T16:58:04.079Z,3.02
2023-03-11T17:00:30.583Z,3.09
2023-03-11T17:02:57.210Z,3.23
2023-03-11T17:05:23.715Z,3.14
2023-03-11T17:07:50.070Z,3.06
2023-03-11T17:10:16.424Z,3.48
2023-03-11T17:12:42.887Z,3.51
2023-03-11T17:15:09.471Z,3.70
2023-03-11T17:17:35.898Z,3.78
2023-03-11T17:20:02.693Z,3.95
2023-03-11T17:22:29.430Z,4.18
2023-03-11T17:24:55.766Z,4.93
2023-03-11T17:27:22.397Z,5.82
2023-03-11T17:29:48.851Z,6.93
2023-03-11T17:32:17.250Z,8.11
2023-03-11T17:34:43.960Z,6.84
2023-03-11T17:37:10.672Z,4.66
2023-03-11T17:39:37.068Z,4.10
2023-03-11T17:42:05.739Z,4.21
2023-03-11T17:44:48.337Z,4.76
2023-03-11T17:47:19.354Z,5.26
2023-03-11T17:49:45.882Z,5.26
2023-03-11T17:52:12.433Z,5.38
2023-03-11T17:54:38.799Z,5.87
2023-03-11T17:57:05.449Z,5.53
2023-03-11T17:59:31.904Z,4.76
2023-03-11T18:01:58.762Z,4.44
2023-03-11T18:04:27.917Z,4.53
2023-03-11T18:06:54.544Z,4.73
2023-03-11T18:09:21.460Z,4.94
2023-03-11T18:11:47.859Z,4.85
2023-03-11T18:14:14.218Z,4.93
2023-03-11T18:16:41.048Z,5.36
2023-03-11T18:19:07.415Z,6.29
2023-03-11T18:21:36.145Z,7.10
2023-03-11T18:24:02.840Z,6.98
2023-03-11T18:26:29.348Z,7.51
2023-03-11T18:28:59.111Z,7.33
2023-03-11T18:31:25.714Z,7.90
2023-03-11T18:33:52.218Z,8.11
2023-03-11T18:36:18.580Z,8.28
2023-03-11T18:38:45.351Z,8.66
2023-03-11T18:41:12.051Z,9.16
2023-03-11T18:43:38.464Z,8.43
2023-03-11T18:46:05.266Z,8.29
2023-03-11T18:48:31.813Z,8.28
2023-03-11T18:50:58.157Z,10.15
2023-03-11T18:53:24.685Z,8.34
2023-03-11T18:55:51.244Z,8.83
2023-03-11T18:58:17.699Z,8.56
2023-03-11T19:00:44.385Z,9.89
2023-03-11T19:03:10.846Z,11.84
2023-03-11T19:05:37.301Z,13.33
2023-03-11T19:08:06.687Z,12.85
2023-03-11T19:10:34.260Z,13.71
2023-03-11T19:13:01.768Z,12.97
2023-03-11T19:15:28.177Z,11.46
2023-03-11T19:18:06.225Z,11.24
2023-03-11T19:20:35.129Z,13.04
2023-03-11T19:23:01.513Z,13.65
2023-03-11T19:25:28.118Z,12.39
2023-03-11T19:27:54.721Z,11.45
2023-03-11T19:30:21.055Z,11.18
2023-03-11T19:32:48.929Z,11.16
2023-03-11T19:35:15.282Z,9.97
2023-03-11T19:37:41.696Z,9.96
2023-03-11T19:40:10.315Z,9.55
2023-03-11T19:42:38.144Z,9.08
2023-03-11T19:45:04.529Z,9.07
2023-03-11T19:47:30.930Z,9.10
2023-03-11T19:49:57.390Z,9.16
2023-03-11T19:52:23.789Z,9.23
2023-03-11T19:54:50.156Z,8.65
2023-03-11T19:57:16.545Z,8.47
2023-03-11T19:59:42.929Z,8.49
2023-03-11T20:02:09.348Z,8.89
2023-03-11T20:04:35.826Z,8.99
2023-03-11T20:07:02.291Z,9.06
2023-03-11T20:09:28.672Z,9.26
2023-03-11T20:11:55.055Z,9.44
2023-03-11T20:14:21.480Z,9.32
2023-03-11T20:16:48.086Z,10.35
2023-03-11T20:19:14.484Z,10.97
2023-03-11T20:21:41.014Z,11.84
2023-03-11T20:24:07.455Z,12.85
2023-03-11T20:26:33.842Z,12.90
2023-03-11T20:29:00.310Z,12.24
2023-03-11T20:31:27.008Z,11.86
2023-03-11T20:33:53.405Z,12.58
2023-03-11T20:36:19.777Z,12.74
2023-03-11T20:38:46.367Z,12.72
2023-03-11T20:41:12.856Z,12.48
2023-03-11T20:43:39.376Z,12.65
2023-03-11T20:46:05.861Z,12.24
2023-03-11T20:48:32.372Z,12.20
2023-03-11T20:50:59.886Z,12.11
2023-03-11T20:53:26.303Z,11.98
2023-03-11T20:55:54.984Z,12.13
2023-03-11T20:58:21.436Z,12.04
2023-03-11T21:00:47.902Z,12.92
2023-03-11T21:03:14.289Z,14.04
2023-03-11T21:05:40.720Z,13.99
2023-03-11T21:08:07.074Z,13.33
2023-03-11T21:10:33.417Z,14.37
2023-03-11T21:12:59.824Z,15.12
2023-03-11T21:15:26.561Z,15.31
2023-03-11T21:17:52.981Z,16.60
2023-03-11T21:20:19.364Z,18.83
2023-03-11T21:22:45.766Z,17.19
2023-03-11T21:25:12.370Z,16.00
2023-03-11T21:27:38.773Z,15.40
2023-03-11T21:30:05.238Z,14.74
2023-03-11T21:32:31.781Z,14.89
2023-03-11T21:34:58.396Z,14.42
2023-03-11T21:37:24.826Z,14.36
2023-03-11T21:39:51.442Z,14.43
2023-03-11T21:42:17.847Z,14.55
2023-03-11T21:44:44.476Z,14.86
2023-03-11T21:47:10.997Z,15.57
2023-03-11T21:49:37.788Z,15.69
2023-03-11T21:52:04.372Z,15.51
2023-03-11T21:54:30.887Z,15.43
2023-03-11T21:56:57.323Z,15.03
2023-03-11T21:59:25.725Z,15.78
2023-03-11T22:01:52.503Z,16.20
2023-03-11T22:04:19.014Z,16.15
2023-03-11T22:06:45.491Z,14.97
2023-03-11T22:09:11.972Z,14.97
2023-03-11T22:11:38.490Z,16.10
2023-03-11T22:14:04.959Z,15.91
2023-03-11T22:16:32.357Z,16.59
2023-03-11T22:18:58.894Z,16.90
2023-03-11T22:21:25.357Z,16.66
2023-03-11T22:23:51.743Z,17.81
2023-03-11T22:26:20.386Z,17.29
2023-03-11T22:28:46.802Z,16.59
2023-03-11T22:31:13.208Z,17.25
2023-03-11T22:33:39.581Z,16.93
2023-03-11T22:36:06.038Z,16.91
2023-03-11T22:38:32.417Z,16.93
2023-03-11T22:40:58.783Z,17.73
2023-03-11T22:43:25.223Z,18.18
2023-03-11T22:45:51.622Z,20.37
2023-03-11T22:48:17.988Z,20.64
2023-03-11T22:50:45.140Z,21.73
2023-03-11T22:53:11.517Z,20.78
2023-03-11T22:55:37.878Z,19.33
2023-03-11T22:58:04.310Z,19.48
2023-03-11T23:00:30.692Z,20.41
2023-03-11T23:02:57.195Z,20.29
2023-03-11T23:05:23.568Z,18.88
2023-03-11T23:07:51.972Z,19.13
2023-03-11T23:10:20.918Z,18.69
2023-03-11T23:12:47.994Z,18.18
2023-03-11T23:15:14.368Z,18.48
2023-03-11T23:17:40.789Z,18.88
2023-03-11T23:20:08.179Z,18.65
2023-03-11T23:22:34.524Z,19.19
2023-03-11T23:25:01.131Z,19.76
2023-03-11T23:27:27.509Z,19.21
2023-03-11T23:29:53.875Z,19.19
2023-03-11T23:32:20.397Z,19.69
2023-03-11T23:34:46.790Z,19.74
2023-03-11T23:37:13.143Z,19.78
2023-03-11T23:39:39.531Z,20.09
2023-03-11T23:42:18.614Z,20.79
2023-03-11T23:44:50.767Z,21.07
2023-03-11T23:47:17.121Z,21.86
2023-03-11T23:49:43.574Z,21.40
2023-03-11T23:52:09.973Z,22.40
2023-03-11T23:54:36.573Z,22.35
2023-03-11T23:57:03.000Z,20.97
2023-03-11T23:59:29.348Z,20.47
